Jackson, MN

9:28 AM CST on December 07, 2016 (GMT -0600)
Jackson Municipal

Weather History for KMJQ - November, 2013

Change the Weather History Date:

Wednesday, November 6, 2013

  Actual Average Record
Temperature  
Mean Temperature 30 °F -  
Max Temperature 35 °F 44 °F 69 °F (2004)
Min Temperature 26 °F 28 °F 8 °F (2003)
Degree Days  
Heating Degree Days 34    
Moisture  
Dew Point 25 °F    
Average Humidity 79    
Maximum Humidity 93    
Minimum Humidity 60    
Precipitation  
Precipitation 0.01 in - - ()
Sea Level Pressure  
Sea Level Pressure 30.12 in    
Wind  
Wind Speed 10 mph (WNW)    
Max Wind Speed 20 mph    
Max Gust Speed 29 mph    
Visibility 9 miles    
Events Snow    
Averages and records for this station are not official NWS values.
T = Trace of Precipitation, MM = Missing Value Source: NWS Daily Summary

Daily Weather History Graph

Daily Weather History Graph

Search for Another Location

Airport or City:

Trip Planner

Search our weather history database for the weather conditions in past years. The results will help you decide how hot, cold, wet, or windy it might be!

Date:

Astronomy

Nov. 06, 2013 Rise Set
Actual Time 7:02 AM CST 5:03 PM CST
Civil Twilight 6:32 AM CST 5:34 PM CST
Nautical Twilight 5:58 AM CST 6:08 PM CST
Astronomical Twilight 5:24 AM CST 6:41 PM CST
Moon 10:20 AM CST (11/6) 8:06 PM CST (11/6)
Length of Visible Light 11h 01m
Length of Day
10h 01m
Waxing Crescent, 14% of the Moon is Illuminated
Nov 6
Waxing Crescent
Nov 9
First Quarter
Nov 17
Full
Nov 25
Last Quarter
Dec 2
New

Hourly Weather History & Observations

Time (CST) Temp. Windchill Dew Point Humidity Pressure Visibility Wind Dir Wind Speed Gust Speed Precip Events Conditions
12:13 AM 32.0 °F 25.6 °F 30.2 °F 93% 30.02 in 1.8 mi North 6.9 mph 19.6 mph N/A Snow Light Snow
12:33 AM 32.0 °F 24.8 °F 30.2 °F 93% 30.02 in 4.0 mi North 8.1 mph 20.7 mph N/A   Overcast
12:53 AM 32.0 °F 23.6 °F 28.4 °F 87% 30.02 in 4.0 mi North 10.4 mph 20.7 mph N/A Snow Light Snow
1:14 AM 32.0 °F 21.2 °F 30.2 °F 93% 30.03 in 2.0 mi NNW 16.1 mph 27.6 mph N/A Snow Light Snow
1:33 AM 32.0 °F 20.1 °F 30.2 °F 93% 30.02 in 4.0 mi NNW 19.6 mph 28.8 mph N/A Snow Light Snow
1:53 AM 32.0 °F 23.0 °F 28.4 °F 87% 30.04 in 7.0 mi NNW 11.5 mph 26.5 mph N/A   Overcast
2:13 AM 32.0 °F 24.2 °F 28.4 °F 87% 30.05 in 10.0 mi NNW 9.2 mph 24.2 mph N/A   Overcast
2:33 AM 32.0 °F 23.6 °F 28.4 °F 87% 30.05 in 10.0 mi NNW 10.4 mph 18.4 mph N/A   Overcast
2:53 AM 32.0 °F 23.6 °F 28.4 °F 87% 30.06 in 10.0 mi NNW 10.4 mph 18.4 mph N/A   Overcast
3:13 AM 32.0 °F 21.2 °F 28.4 °F 87% 30.05 in 7.0 mi NNW 16.1 mph - N/A Snow Light Snow
3:33 AM 32.0 °F 20.5 °F 28.4 °F 87% 30.04 in 4.0 mi NNW 18.4 mph 24.2 mph N/A Snow Light Snow
3:53 AM 30.2 °F 19.8 °F 28.4 °F 93% 30.04 in 5.0 mi NNW 13.8 mph 20.7 mph N/A Snow Light Snow
4:14 AM 30.2 °F 21.9 °F 26.6 °F 86% 30.05 in 10.0 mi NNW 9.2 mph 17.3 mph N/A   Overcast
4:33 AM 30.2 °F 23.4 °F 26.6 °F 86% 30.05 in 10.0 mi NNW 6.9 mph - N/A   Overcast
4:53 AM 28.4 °F 20.4 °F 24.8 °F 86% 30.06 in 10.0 mi NNW 8.1 mph - N/A   Scattered Clouds
5:14 AM 28.4 °F 20.4 °F 23.0 °F 80% 30.07 in 10.0 mi NW 8.1 mph - N/A   Clear
5:33 AM 28.4 °F 19.7 °F 24.8 °F 86% 30.07 in 10.0 mi NW 9.2 mph - N/A   Scattered Clouds
5:53 AM 28.4 °F 19.7 °F 24.8 °F 86% 30.07 in 10.0 mi NW 9.2 mph - N/A   Overcast
6:14 AM 28.4 °F 19.7 °F 24.8 °F 86% 30.08 in 10.0 mi NW 9.2 mph - N/A   Overcast
6:33 AM 28.4 °F 19.7 °F 23.0 °F 80% 30.07 in 10.0 mi NW 9.2 mph - N/A   Mostly Cloudy
6:53 AM 28.4 °F 19.1 °F 23.0 °F 80% 30.08 in 10.0 mi NW 10.4 mph - N/A   Scattered Clouds
7:14 AM 28.4 °F 19.1 °F 23.0 °F 80% 30.08 in 10.0 mi NW 10.4 mph - N/A   Clear
7:33 AM 28.4 °F 19.1 °F 21.2 °F 74% 30.09 in 10.0 mi NW 10.4 mph - N/A   Clear
7:53 AM 26.6 °F 16.8 °F 21.2 °F 80% 30.10 in 10.0 mi NW 10.4 mph - N/A   Clear
8:14 AM 28.4 °F 19.7 °F 21.2 °F 74% 30.11 in 10.0 mi NW 9.2 mph - N/A   Clear
8:33 AM 28.4 °F 19.7 °F 21.2 °F 74% 30.11 in 10.0 mi NW 9.2 mph - N/A   Clear
8:53 AM 28.4 °F 19.1 °F 21.2 °F 74% 30.12 in 10.0 mi NW 10.4 mph - N/A   Clear
9:14 AM 28.4 °F 19.1 °F 21.2 °F 74% 30.12 in 10.0 mi NW 10.4 mph - N/A   Clear
9:33 AM 30.2 °F 20.8 °F 21.2 °F 69% 30.13 in 10.0 mi WNW 11.5 mph - N/A   Clear
9:53 AM 30.2 °F 20.2 °F 21.2 °F 69% 30.14 in 10.0 mi WNW 12.7 mph - N/A   Clear
10:13 AM 32.0 °F 23.6 °F 21.2 °F 64% 30.14 in 10.0 mi NW 10.4 mph - N/A   Clear
10:33 AM 32.0 °F 25.6 °F 21.2 °F 64% 30.15 in 10.0 mi WNW 6.9 mph - N/A   Clear
10:53 AM 32.0 °F 24.8 °F 21.2 °F 64% 30.15 in 10.0 mi WNW 8.1 mph - N/A   Clear
11:13 AM 32.0 °F 25.6 °F 23.0 °F 69% 30.15 in 10.0 mi West 6.9 mph - 0.01 in   Clear
11:33 AM 32.0 °F 24.2 °F 23.0 °F 69% 30.16 in 10.0 mi West 9.2 mph - 0.01 in   Clear
11:53 AM 32.0 °F 25.6 °F 23.0 °F 69% 30.15 in 10.0 mi West 6.9 mph - 0.01 in   Clear
12:13 PM 32.0 °F 24.8 °F 23.0 °F 69% 30.15 in 10.0 mi West 8.1 mph - N/A   Clear
12:33 PM 32.0 °F 24.2 °F 21.2 °F 64% 30.15 in 10.0 mi West 9.2 mph - N/A   Clear
12:53 PM 32.0 °F 24.2 °F 23.0 °F 69% 30.15 in 10.0 mi West 9.2 mph - N/A   Clear
1:13 PM 33.8 °F 26.4 °F 21.2 °F 60% 30.15 in 10.0 mi West 9.2 mph - N/A   Clear
1:33 PM 33.8 °F 26.4 °F 23.0 °F 65% 30.15 in 10.0 mi West 9.2 mph - N/A   Clear
1:53 PM 33.8 °F 26.4 °F 23.0 °F 65% 30.15 in 10.0 mi West 9.2 mph - N/A   Clear
2:13 PM 33.8 °F 25.8 °F 24.8 °F 70% 30.15 in 10.0 mi WSW 10.4 mph - N/A   Clear
2:33 PM 35.6 °F 29.9 °F 24.8 °F 65% 30.15 in 10.0 mi WSW 6.9 mph - N/A   Clear
2:53 PM 35.6 °F 28.6 °F 26.6 °F 70% 30.15 in 10.0 mi WSW 9.2 mph - N/A   Clear
3:13 PM 35.6 °F 28.6 °F 24.8 °F 65% 30.16 in 10.0 mi West 9.2 mph - N/A   Clear
3:33 PM 33.8 °F 25.8 °F 26.6 °F 75% 30.16 in 10.0 mi West 10.4 mph - N/A   Clear
3:53 PM 33.8 °F 26.4 °F 24.8 °F 70% 30.16 in 10.0 mi WSW 9.2 mph - N/A   Clear
4:13 PM 32.0 °F 24.8 °F 26.6 °F 80% 30.16 in 10.0 mi WSW 8.1 mph - N/A   Clear
4:33 PM 32.0 °F 26.4 °F 26.6 °F 80% 30.15 in 10.0 mi WSW 5.8 mph - N/A   Clear
4:53 PM 32.0 °F 25.6 °F 24.8 °F 75% 30.15 in 10.0 mi WSW 6.9 mph - N/A   Clear
5:13 PM 32.0 °F 24.2 °F 24.8 °F 75% 30.15 in 10.0 mi WSW 9.2 mph - N/A   Clear
5:33 PM 30.2 °F 21.9 °F 24.8 °F 80% 30.16 in 10.0 mi WSW 9.2 mph - N/A   Clear
5:53 PM 30.2 °F 21.9 °F 24.8 °F 80% 30.16 in 10.0 mi SW 9.2 mph - N/A   Clear
6:13 PM 30.2 °F 21.9 °F 23.0 °F 75% 30.17 in 10.0 mi SW 9.2 mph - N/A   Clear
6:33 PM 30.2 °F 22.6 °F 23.0 °F 75% 30.18 in 10.0 mi SW 8.1 mph - N/A   Clear
6:53 PM 30.2 °F 21.3 °F 24.8 °F 80% 30.18 in 10.0 mi WSW 10.4 mph - N/A   Clear
7:13 PM 30.2 °F 21.9 °F 24.8 °F 80% 30.18 in 10.0 mi SW 9.2 mph - N/A   Clear
7:33 PM 28.4 °F 19.1 °F 24.8 °F 86% 30.18 in 10.0 mi SW 10.4 mph - N/A   Clear
7:53 PM 28.4 °F 18.5 °F 24.8 °F 86% 30.17 in 10.0 mi SW 11.5 mph - N/A   Clear
8:13 PM 28.4 °F 19.7 °F 24.8 °F 86% 30.17 in 10.0 mi SW 9.2 mph - N/A   Clear
8:33 PM 28.4 °F 20.4 °F 24.8 °F 86% 30.16 in 10.0 mi SSW 8.1 mph - N/A   Clear
8:53 PM 28.4 °F 19.7 °F 26.6 °F 93% 30.17 in 10.0 mi SW 9.2 mph - N/A   Scattered Clouds
9:13 PM 30.2 °F 24.3 °F 26.6 °F 86% 30.17 in 10.0 mi SW 5.8 mph - N/A   Mostly Cloudy
9:33 PM 30.2 °F 24.3 °F 26.6 °F 86% 30.18 in 10.0 mi WSW 5.8 mph - N/A   Mostly Cloudy
9:53 PM 30.2 °F 22.6 °F 26.6 °F 86% 30.18 in 10.0 mi WSW 8.1 mph - N/A   Overcast
10:13 PM 30.2 °F 21.9 °F 26.6 °F 86% 30.19 in 10.0 mi WSW 9.2 mph - N/A   Overcast
10:33 PM 30.2 °F 21.9 °F 26.6 °F 86% 30.19 in 10.0 mi West 9.2 mph - N/A   Overcast
10:53 PM 30.2 °F 20.8 °F 28.4 °F 93% 30.19 in 10.0 mi West 11.5 mph - N/A   Overcast
11:13 PM 32.0 °F 22.1 °F 28.4 °F 87% 30.19 in 10.0 mi West 13.8 mph - N/A   Overcast
11:33 PM 32.0 °F 22.1 °F 28.4 °F 87% 30.18 in 10.0 mi West 13.8 mph 19.6 mph N/A   Overcast
11:53 PM 32.0 °F 23.0 °F 28.4 °F 87% 30.19 in 10.0 mi West 11.5 mph - N/A   Overcast